This is the latest recevied weather packets stored in our database for station/object WX7FGZ-7. If no packets are shown the sender has not sent any weather packets the latest 10 day(s).
| Time | Temp. | Humidity | Pressure | Rain* | Wind** | Luminosity | Snow |
|---|---|---|---|---|---|---|---|
| 1777439385 | 8.89° C | 30% | 1017 hPa | 0 mm | - | - | - |
| 1777438788 | 8.89° C | 32% | 1016.9 hPa | 0 mm | - | - | - |
| 1777438552 | 8.89° C | 32% | 1017 hPa | 0 mm | - | - | - |
| 1777438486 | 8.89° C | 32% | 1017 hPa | 0 mm | - | - | - |
| 1777438238 | 8.89° C | 32% | 1017 hPa | 0 mm | - | - | - |
| 1777438197 | 8.89° C | 32% | 1017 hPa | 0 mm | - | - | - |
| 1777437892 | 8.89° C | 33% | 1017.1 hPa | 0 mm | - | - | - |
| 1777437585 | 8.89° C | 34% | 1017 hPa | 0 mm | - | - | - |
| 1777436985 | 9.44° C | 34% | 1017.1 hPa | 0 mm | - | - | - |
| 1777436697 | 9.44° C | 32% | 1017.1 hPa | 0 mm | - | - | - |
| 1777436386 | 10° C | 32% | 1017.1 hPa | 0 mm | - | - | - |
| 1777435568 | 10.56° C | 30% | 1018 hPa | 0 mm | - | - | - |
| 1777435498 | 10.56° C | 30% | 1018 hPa | 0 mm | - | - | - |
| 1777434589 | 11.11° C | 30% | 1017.7 hPa | 0 mm | - | - | - |
| 1777433988 | 11.67° C | 29% | 1017.6 hPa | 0 mm | - | - | - |
| 1777432185 | 12.78° C | 29% | 1017.7 hPa | 0 mm | - | - | - |
| 1777431945 | 12.78° C | 26% | 1017.7 hPa | 0 mm | - | - | - |
| 1777431897 | 12.78° C | 26% | 1017.7 hPa | 0 mm | - | - | - |
| 1777431285 | 13.33° C | 28% | 1017.7 hPa | 0 mm | - | - | - |
| 1777430139 | 15° C | 25% | 1017.7 hPa | 0 mm | - | - | - |
| 1777430087 | 15° C | 25% | 1017.7 hPa | 0 mm | - | - | - |
| 1777429496 | 16.67° C | 21% | 1017.4 hPa | 0 mm | - | - | - |
| 1777429187 | 17.22° C | 20% | 1017.4 hPa | 0 mm | - | - | - |
| 1777428589 | 17.78° C | 18% | 1017.4 hPa | 0 mm | - | - | - |
| 1777428285 | 18.33° C | 18% | 1017.4 hPa | 0 mm | - | - | - |
* Rain latest hour (hover to see other rain measurements)
** Current wind speed in m/s (hover to see current wind gust speed)